Time;durP1;ratioP1;P1;durP2;ratioP2;P2;SDS_P1;SDS_P2;PMS_P1;PMS_P2;Temp;Humidity;BMP_temperature;BMP_pressure;BME280_temperature;BME280_humidity;BME280_pressure;Samples;Min_cycle;Max_cycle;Signal;HPM_P1;HPM_P2
2021/09/13 00:02:12;;;;;;;4.43;4.03;;;15.80;99.90;;;;;;5015386;28;20414;-78
2021/09/13 00:04:43;;;;;;;6.47;4.13;;;15.80;99.90;;;;;;5015433;28;20467;-78
2021/09/13 00:07:12;;;;;;;6.40;4.50;;;15.80;99.90;;;;;;5014279;28;20438;-78
2021/09/13 00:09:40;;;;;;;4.60;4.20;;;15.90;99.90;;;;;;5015230;28;20196;-78
2021/09/13 00:12:09;;;;;;;6.85;4.70;;;15.90;99.90;;;;;;5015017;28;20895;-78
2021/09/13 00:14:39;;;;;;;5.20;4.27;;;15.90;99.90;;;;;;5015325;28;20478;-78
2021/09/13 00:17:08;;;;;;;7.00;4.33;;;15.90;99.90;;;;;;5015788;28;20922;-78
2021/09/13 00:19:37;;;;;;;5.83;3.97;;;15.80;99.90;;;;;;5015581;28;20471;-78
2021/09/13 00:22:07;;;;;;;5.13;4.60;;;15.80;99.90;;;;;;5015722;28;20429;-78
2021/09/13 00:24:35;;;;;;;6.53;4.93;;;15.80;99.90;;;;;;5015210;28;20449;-78
2021/09/13 00:27:06;;;;;;;5.70;4.70;;;15.70;99.90;;;;;;5015509;28;20497;-78
2021/09/13 00:29:36;;;;;;;5.67;5.10;;;15.80;99.90;;;;;;5015236;28;20451;-78
2021/09/13 00:32:06;;;;;;;10.00;4.43;;;15.70;99.90;;;;;;5015360;28;20442;-78
2021/09/13 00:34:35;;;;;;;4.67;4.27;;;15.70;99.90;;;;;;5014868;28;20577;-78
2021/09/13 00:37:07;;;;;;;6.27;4.60;;;15.70;99.90;;;;;;5016125;28;20823;-78
2021/09/13 00:39:35;;;;;;;5.15;4.60;;;15.70;99.90;;;;;;5014570;28;20457;-78
2021/09/13 00:42:07;;;;;;;7.33;4.70;;;15.70;99.90;;;;;;5016543;28;20250;-79
2021/09/13 00:44:36;;;;;;;10.10;5.18;;;15.80;99.90;;;;;;5033120;28;20786;-78
2021/09/13 00:47:04;;;;;;;5.77;4.37;;;15.70;99.90;;;;;;5016387;28;20682;-79
2021/09/13 00:49:33;;;;;;;5.50;4.30;;;15.70;99.90;;;;;;5015539;28;21051;-79
2021/09/13 00:52:01;;;;;;;4.97;4.53;;;15.70;99.90;;;;;;5015637;28;20465;-79
2021/09/13 00:54:31;;;;;;;4.53;4.13;;;15.70;99.90;;;;;;5015045;28;20499;-78
2021/09/13 00:56:59;;;;;;;5.40;4.43;;;15.60;99.90;;;;;;5014957;28;20958;-78
2021/09/13 00:59:27;;;;;;;7.13;4.57;;;15.60;99.90;;;;;;5015635;28;20493;-78
2021/09/13 01:01:55;;;;;;;5.40;4.00;;;15.60;99.90;;;;;;5015563;28;20451;-79
2021/09/13 01:04:24;;;;;;;5.70;5.20;;;15.60;99.90;;;;;;5018945;28;20463;-78
2021/09/13 01:06:52;;;;;;;5.87;3.80;;;15.60;99.90;;;;;;5019896;28;20432;-79
2021/09/13 01:09:20;;;;;;;7.50;4.67;;;15.60;99.90;;;;;;5018753;28;20424;-78
2021/09/13 01:11:50;;;;;;;6.30;4.50;;;15.50;99.90;;;;;;5018674;28;20483;-78
2021/09/13 01:14:20;;;;;;;8.27;4.87;;;15.50;99.90;;;;;;5018126;28;20501;-78
2021/09/13 01:16:49;;;;;;;4.87;4.40;;;15.60;99.90;;;;;;5019591;28;20532;-79
2021/09/13 01:19:17;;;;;;;6.70;4.77;;;15.60;99.90;;;;;;5018494;28;20425;-78
2021/09/13 01:21:48;;;;;;;4.93;4.43;;;15.50;99.90;;;;;;5018663;28;20425;-79
2021/09/13 01:24:19;;;;;;;5.43;4.70;;;15.50;99.90;;;;;;5019396;28;20863;-79
2021/09/13 01:26:47;;;;;;;7.93;4.67;;;15.60;99.90;;;;;;5018663;28;20422;-79
2021/09/13 01:29:20;;;;;;;5.23;4.67;;;15.60;99.90;;;;;;5018886;28;20934;-79
2021/09/13 01:31:48;;;;;;;5.80;4.80;;;15.60;99.90;;;;;;5018248;28;20418;-79
2021/09/13 01:34:20;;;;;;;8.90;4.90;;;15.50;99.90;;;;;;5019326;28;20819;-79
2021/09/13 01:36:53;;;;;;;8.20;4.90;;;15.50;99.90;;;;;;5018848;28;20470;-78
2021/09/13 01:39:23;;;;;;;5.33;4.77;;;15.60;99.90;;;;;;5018256;28;20428;-78
2021/09/13 01:41:51;;;;;;;6.23;5.30;;;15.50;99.90;;;;;;5018137;28;20437;-78
2021/09/13 01:44:27;;;;;;;6.80;5.10;;;15.60;99.90;;;;;;5018284;28;20539;-78
2021/09/13 01:46:57;;;;;;;7.10;5.77;;;15.50;99.90;;;;;;5018178;28;20439;-79
2021/09/13 01:49:27;;;;;;;6.60;6.00;;;15.60;99.90;;;;;;5016971;28;20434;-78
2021/09/13 01:51:57;;;;;;;6.37;5.30;;;15.60;99.90;;;;;;5018036;28;20235;-78
2021/09/13 01:54:27;;;;;;;6.10;5.47;;;15.60;99.90;;;;;;5018135;28;20482;-79
2021/09/13 01:56:56;;;;;;;7.67;6.23;;;15.60;99.90;;;;;;5019418;28;20467;-79
2021/09/13 01:59:34;;;;;;;6.83;5.43;;;15.60;99.90;;;;;;5019315;28;20410;-78
2021/09/13 02:02:02;;;;;;;8.73;6.00;;;15.60;99.90;;;;;;5019201;28;20487;-79
2021/09/13 02:04:30;;;;;;;7.83;5.33;;;15.60;99.90;;;;;;5018427;28;20470;-79
2021/09/13 02:06:59;;;;;;;7.97;6.70;;;15.60;99.90;;;;;;5036040;28;20854;-79
2021/09/13 02:09:29;;;;;;;8.73;5.93;;;15.60;99.90;;;;;;5035832;28;20470;-79
2021/09/13 02:11:57;;;;;;;7.20;6.50;;;15.60;99.90;;;;;;5017277;28;20463;-78
2021/09/13 02:14:29;;;;;;;5.73;5.00;;;15.60;99.90;;;;;;5016932;28;20454;-78
2021/09/13 02:16:57;;;;;;;8.38;6.07;;;15.60;99.90;;;;;;5017680;28;20968;-79
2021/09/13 02:19:26;;;;;;;7.90;6.20;;;15.70;99.90;;;;;;5017655;28;20214;-78
2021/09/13 02:21:54;;;;;;;5.60;4.97;;;15.70;99.90;;;;;;5035547;28;20509;-79
2021/09/13 02:24:23;;;;;;;6.85;5.78;;;15.70;99.90;;;;;;5016146;28;20441;-78
2021/09/13 02:26:53;;;;;;;7.67;5.90;;;15.80;99.90;;;;;;5017780;28;20193;-79
2021/09/13 02:29:21;;;;;;;10.43;5.73;;;15.80;99.90;;;;;;5017575;28;20797;-78
2021/09/13 02:31:50;;;;;;;6.40;5.70;;;15.80;99.90;;;;;;5017090;28;20554;-78
2021/09/13 02:34:18;;;;;;;11.93;7.63;;;15.80;99.90;;;;;;5016624;28;20487;-78
2021/09/13 02:36:46;;;;;;;7.73;6.10;;;15.80;99.90;;;;;;5016944;28;20441;-78
2021/09/13 02:39:17;;;;;;;6.80;5.60;;;15.80;99.90;;;;;;5016870;28;20489;-78
2021/09/13 02:41:48;;;;;;;9.23;7.03;;;15.80;99.90;;;;;;5017133;28;20426;-77
2021/09/13 02:44:18;;;;;;;6.77;5.90;;;15.70;99.90;;;;;;5017698;28;20446;-79
2021/09/13 02:46:47;;;;;;;8.13;6.77;;;15.70;99.90;;;;;;5018516;28;20451;-78
2021/09/13 02:49:15;;;;;;;8.53;7.30;;;15.70;99.90;;;;;;5016925;28;20443;-78
2021/09/13 02:51:43;;;;;;;10.18;6.90;;;15.70;99.90;;;;;;5016344;28;20449;-78
2021/09/13 02:54:13;;;;;;;7.33;6.53;;;15.70;99.90;;;;;;5016696;28;20222;-78
2021/09/13 02:56:41;;;;;;;6.30;5.70;;;15.70;99.90;;;;;;5016758;28;21006;-78
2021/09/13 02:59:10;;;;;;;12.60;7.10;;;15.70;99.90;;;;;;5017758;28;20426;-79
2021/09/13 03:01:39;;;;;;;6.70;6.10;;;15.70;99.90;;;;;;5016559;28;20952;-78
2021/09/13 03:04:08;;;;;;;7.70;5.83;;;15.70;99.90;;;;;;5016398;28;20475;-78
2021/09/13 03:06:37;;;;;;;8.73;7.17;;;15.70;99.90;;;;;;5016548;28;20510;-78
2021/09/13 03:09:06;;;;;;;8.00;6.47;;;15.70;99.90;;;;;;5016854;28;20462;-78
2021/09/13 03:11:38;;;;;;;7.77;6.77;;;15.70;99.90;;;;;;5016539;28;20530;-78
2021/09/13 03:14:06;;;;;;;8.07;6.80;;;15.70;99.90;;;;;;5016299;28;20536;-79
2021/09/13 03:16:35;;;;;;;9.03;7.23;;;15.70;99.90;;;;;;5016224;28;21065;-78
2021/09/13 03:19:07;;;;;;;9.57;7.20;;;15.70;99.90;;;;;;5034221;28;20462;-78
2021/09/13 03:21:35;;;;;;;10.13;9.13;;;15.70;99.90;;;;;;5016171;28;20425;-78
2021/09/13 03:24:08;;;;;;;9.47;8.50;;;15.70;99.90;;;;;;5015759;28;21001;-78
2021/09/13 03:26:36;;;;;;;9.50;8.18;;;15.70;99.90;;;;;;5015313;28;20490;-78
2021/09/13 03:29:05;;;;;;;9.03;8.13;;;15.80;99.90;;;;;;5016338;28;20199;-78
2021/09/13 03:31:33;;;;;;;10.43;7.40;;;15.80;99.90;;;;;;5016324;28;20518;-78
2021/09/13 03:34:02;;;;;;;10.47;8.87;;;15.80;99.90;;;;;;5016001;28;20282;-79
2021/09/13 03:36:32;;;;;;;8.80;8.00;;;15.80;99.90;;;;;;5016169;28;20516;-78
2021/09/13 03:39:02;;;;;;;9.00;7.20;;;15.80;99.90;;;;;;5016303;28;20458;-78
2021/09/13 03:41:31;;;;;;;8.57;7.53;;;15.80;99.90;;;;;;5016027;28;20429;-79
2021/09/13 03:43:59;;;;;;;8.47;7.50;;;15.80;99.90;;;;;;5016353;28;20501;-78
2021/09/13 03:46:30;;;;;;;10.03;7.50;;;15.80;99.90;;;;;;5016579;28;20455;-79
2021/09/13 03:49:14;;;;;;;8.97;7.50;;;15.80;99.90;;;;;;5015561;28;20433;-79
2021/09/13 03:51:45;;;;;;;8.40;7.60;;;15.70;99.90;;;;;;5015912;28;20465;-78
2021/09/13 03:54:13;;;;;;;8.50;7.30;;;15.70;99.90;;;;;;5016178;28;20437;-78
2021/09/13 03:56:45;;;;;;;11.23;8.33;;;15.70;99.90;;;;;;5016938;28;20434;-78
2021/09/13 03:59:16;;;;;;;10.90;7.57;;;15.80;99.90;;;;;;5016968;28;20457;-79
2021/09/13 04:01:46;;;;;;;9.00;8.00;;;15.70;99.90;;;;;;5015145;28;20449;-78
2021/09/13 04:04:16;;;;;;;10.10;7.63;;;15.80;99.90;;;;;;5015916;28;20212;-79
2021/09/13 04:06:47;;;;;;;8.73;7.82;;;15.80;99.90;;;;;;5015804;28;20446;-78
2021/09/13 04:12:25;;;;;;;10.07;7.20;;;15.90;99.90;;;;;;5016192;28;20449;-79
2021/09/13 04:15:22;;;;;;;9.50;8.60;;;15.80;99.90;;;;;;5020260;28;20442;-79
2021/09/13 04:18:10;;;;;;;8.97;6.80;;;15.80;99.90;;;;;;5033392;28;20466;-79
2021/09/13 04:20:52;;;;;;;8.90;7.90;;;15.80;99.90;;;;;;5034306;28;20863;-79
2021/09/13 04:23:53;;;;;;;9.30;7.80;;;15.80;99.90;;;;;;5016018;28;20511;-78
2021/09/13 04:26:44;;;;;;;8.30;7.50;;;15.80;99.90;;;;;;5015752;28;20417;-78
2021/09/13 04:29:37;;;;;;;8.83;7.20;;;15.80;99.90;;;;;;5016046;28;20425;-78
2021/09/13 04:32:28;;;;;;;10.70;6.80;;;15.80;99.90;;;;;;4995996;28;20413;-78
2021/09/13 04:35:15;;;;;;;10.52;7.63;;;15.80;99.90;;;;;;5032832;28;20445;-78
2021/09/13 04:38:12;;;;;;;10.70;7.30;;;15.80;99.90;;;;;;5017991;28;20220;-78
2021/09/13 04:40:57;;;;;;;10.23;8.05;;;15.80;99.90;;;;;;5018810;28;20442;-78
2021/09/13 04:43:47;;;;;;;8.70;7.80;;;15.80;99.90;;;;;;5037082;28;20199;-78
2021/09/13 04:46:27;;;;;;;8.63;7.63;;;15.80;99.90;;;;;;5019120;28;20530;-78
2021/09/13 04:49:14;;;;;;;9.27;7.40;;;15.90;99.90;;;;;;5036951;28;20426;-78
2021/09/13 04:52:06;;;;;;;10.10;7.40;;;15.80;99.90;;;;;;5036478;28;20462;-78
2021/09/13 04:54:48;;;;;;;8.03;6.70;;;15.80;99.90;;;;;;5018517;28;20849;-78
2021/09/13 04:57:18;;;;;;;10.50;7.30;;;15.80;99.90;;;;;;5018148;28;20452;-78
2021/09/13 04:59:47;;;;;;;9.47;6.60;;;15.80;99.90;;;;;;5018664;28;20456;-78
2021/09/13 05:02:15;;;;;;;7.50;6.50;;;15.80;99.90;;;;;;5018605;28;20479;-78
2021/09/13 05:04:45;;;;;;;7.63;6.93;;;15.80;99.90;;;;;;5016614;28;20822;-78
2021/09/13 05:07:14;;;;;;;7.43;6.20;;;15.80;99.90;;;;;;5018614;28;20454;-77
2021/09/13 05:09:42;;;;;;;8.30;6.70;;;15.90;99.90;;;;;;5018411;28;20506;-77
2021/09/13 05:12:11;;;;;;;8.20;6.30;;;15.90;99.90;;;;;;5018458;28;20326;-78
2021/09/13 05:14:44;;;;;;;10.43;6.37;;;15.90;99.90;;;;;;5018492;28;20442;-77
2021/09/13 05:17:12;;;;;;;10.40;7.37;;;15.90;99.90;;;;;;5017352;28;20445;-77
2021/09/13 05:19:42;;;;;;;12.00;6.40;;;16.00;99.90;;;;;;5019432;28;20478;-78
2021/09/13 05:22:10;;;;;;;9.90;6.33;;;16.10;99.90;;;;;;5018308;28;20443;-77
2021/09/13 05:24:38;;;;;;;7.03;6.33;;;16.00;99.90;;;;;;5018205;28;20471;-77
2021/09/13 05:27:10;;;;;;;12.53;7.33;;;16.00;99.90;;;;;;5018248;28;20406;-77
2021/09/13 05:29:38;;;;;;;8.30;7.10;;;16.00;99.90;;;;;;5018249;28;20462;-77
2021/09/13 05:32:08;;;;;;;9.77;7.30;;;16.00;99.90;;;;;;5018402;28;20421;-78
2021/09/13 05:34:37;;;;;;;11.07;7.73;;;16.00;99.90;;;;;;5018040;28;20445;-77
2021/09/13 05:37:05;;;;;;;9.07;7.73;;;16.00;99.90;;;;;;5018945;28;20421;-77
2021/09/13 05:39:35;;;;;;;10.37;8.53;;;16.00;99.90;;;;;;5018034;28;20445;-77
2021/09/13 05:42:07;;;;;;;9.93;8.93;;;16.00;99.90;;;;;;5017993;28;20907;-77
2021/09/13 05:44:41;;;;;;;8.90;7.90;;;16.00;99.90;;;;;;5035667;28;21009;-77
2021/09/13 05:47:11;;;;;;;8.97;8.07;;;16.00;99.90;;;;;;5017894;28;20465;-77
2021/09/13 05:49:40;;;;;;;10.53;8.03;;;16.00;99.90;;;;;;5017764;28;20938;-77
2021/09/13 05:52:15;;;;;;;10.25;9.25;;;16.00;99.90;;;;;;5017847;28;20507;-75
2021/09/13 05:54:48;;;;;;;15.10;9.10;;;16.10;99.90;;;;;;5019311;28;20231;-78
2021/09/13 05:57:17;;;;;;;9.73;8.80;;;16.10;99.90;;;;;;5018646;28;20794;-79
2021/09/13 05:59:48;;;;;;;11.43;8.50;;;16.10;99.90;;;;;;5018802;28;20874;-79
2021/09/13 06:02:20;;;;;;;12.33;9.10;;;16.10;99.90;;;;;;5019415;28;20439;-79
2021/09/13 06:05:13;;;;;;;10.50;8.73;;;16.10;99.90;;;;;;5019413;28;20522;-79
2021/09/13 06:07:42;;;;;;;10.33;9.07;;;16.10;99.90;;;;;;5019615;28;20453;-79
2021/09/13 06:10:15;;;;;;;10.73;9.30;;;16.10;99.90;;;;;;5020210;28;20437;-78
2021/09/13 06:12:45;;;;;;;11.20;10.00;;;16.20;99.90;;;;;;5019881;28;20437;-79
2021/09/13 06:15:13;;;;;;;12.53;10.10;;;16.20;99.90;;;;;;5019940;28;20451;-78
2021/09/13 06:17:47;;;;;;;11.40;10.20;;;16.20;99.90;;;;;;5020378;28;20425;-79
2021/09/13 06:20:22;;;;;;;15.52;12.10;;;16.20;99.90;;;;;;5019230;28;20486;-79
2021/09/13 06:22:53;;;;;;;12.60;9.87;;;16.20;99.90;;;;;;5020086;28;20192;-79
2021/09/13 06:25:26;;;;;;;13.00;9.73;;;16.20;99.90;;;;;;5019509;28;20977;-79
2021/09/13 06:27:55;;;;;;;13.85;10.65;;;16.30;99.90;;;;;;5018394;28;20452;-79
2021/09/13 06:30:23;;;;;;;12.83;9.93;;;16.30;99.90;;;;;;5019609;28;20565;-79
2021/09/13 06:32:54;;;;;;;11.80;8.90;;;16.40;99.90;;;;;;5019252;28;20800;-79
2021/09/13 06:35:27;;;;;;;12.57;9.27;;;16.40;99.90;;;;;;5019472;28;20958;-78
2021/09/13 06:38:03;;;;;;;12.63;9.77;;;16.40;99.90;;;;;;5019558;28;20440;-79
2021/09/13 06:40:31;;;;;;;12.60;9.30;;;16.40;99.90;;;;;;5019230;28;20445;-78
2021/09/13 06:43:00;;;;;;;11.80;9.80;;;16.40;99.90;;;;;;5019488;28;21001;-78
2021/09/13 06:45:29;;;;;;;12.20;9.47;;;16.50;99.90;;;;;;5019411;28;20449;-79
2021/09/13 06:48:03;;;;;;;12.73;9.43;;;16.50;99.90;;;;;;5018971;28;20422;-78
2021/09/13 06:50:31;;;;;;;11.47;10.30;;;16.50;99.90;;;;;;5018520;28;20474;-79
2021/09/13 06:52:59;;;;;;;8.50;7.70;;;16.50;99.90;;;;;;5019626;28;20478;-78
2021/09/13 06:55:29;;;;;;;10.40;9.30;;;16.60;99.90;;;;;;5018690;28;20424;-78
2021/09/13 06:57:58;;;;;;;13.20;8.90;;;16.60;99.90;;;;;;5019106;28;20668;-79
2021/09/13 07:00:29;;;;;;;13.27;9.17;;;16.70;99.90;;;;;;5018713;28;20439;-79
2021/09/13 07:02:59;;;;;;;12.30;9.02;;;16.70;99.90;;;;;;5035493;28;20837;-78
2021/09/13 07:05:29;;;;;;;10.70;8.67;;;16.80;99.90;;;;;;5018637;28;20216;-78
2021/09/13 07:07:57;;;;;;;12.90;8.83;;;16.80;99.90;;;;;;5018921;28;20475;-78
2021/09/13 07:10:26;;;;;;;10.80;9.50;;;16.80;99.90;;;;;;5018985;28;20461;-78
2021/09/13 07:12:54;;;;;;;10.70;9.13;;;16.80;99.90;;;;;;5018482;28;20462;-79
2021/09/13 07:15:23;;;;;;;10.40;9.27;;;16.80;99.90;;;;;;5035874;28;20554;-78
2021/09/13 07:17:51;;;;;;;9.90;8.93;;;16.80;99.90;;;;;;5018272;28;20443;-79
2021/09/13 07:20:21;;;;;;;16.07;10.00;;;16.90;99.90;;;;;;5018746;28;20532;-79
2021/09/13 07:22:51;;;;;;;14.47;10.23;;;16.90;99.90;;;;;;5018016;28;20461;-78
2021/09/13 07:25:19;;;;;;;11.33;9.20;;;16.90;99.90;;;;;;5036341;28;20471;-78
2021/09/13 07:27:47;;;;;;;12.70;9.50;;;17.00;99.90;;;;;;5035745;28;20413;-78
2021/09/13 07:30:16;;;;;;;10.13;9.05;;;17.00;99.90;;;;;;5035447;28;20507;-79
2021/09/13 07:32:48;;;;;;;10.40;9.07;;;17.00;99.90;;;;;;5018231;28;20184;-78
2021/09/13 07:35:16;;;;;;;9.53;8.30;;;17.10;99.90;;;;;;5035885;28;20429;-79
2021/09/13 07:37:44;;;;;;;12.07;9.07;;;17.10;99.90;;;;;;5016054;28;20518;-78
2021/09/13 07:40:14;;;;;;;10.60;8.17;;;17.20;99.90;;;;;;5017131;28;20470;-78
2021/09/13 07:42:43;;;;;;;10.00;7.80;;;17.20;99.90;;;;;;5034126;28;20478;-78
2021/09/13 07:45:12;;;;;;;8.67;7.60;;;17.20;99.90;;;;;;5016197;28;20958;-77
2021/09/13 07:47:40;;;;;;;10.50;8.00;;;17.30;99.90;;;;;;5016392;28;20485;-77
2021/09/13 07:50:09;;;;;;;11.17;7.67;;;17.30;99.90;;;;;;5034210;28;20474;-77
2021/09/13 07:52:38;;;;;;;9.53;7.50;;;17.30;99.90;;;;;;5016477;28;20480;-77
2021/09/13 07:55:07;;;;;;;15.00;8.77;;;17.30;99.90;;;;;;5016086;28;20546;-77
2021/09/13 07:57:38;;;;;;;10.83;7.73;;;17.30;99.90;;;;;;5016534;28;20414;-77
2021/09/13 08:00:07;;;;;;;8.57;7.27;;;17.30;99.90;;;;;;5033918;28;20499;-76
2021/09/13 08:02:40;;;;;;;7.93;6.63;;;17.30;99.90;;;;;;5033843;28;20578;-76
2021/09/13 08:05:10;;;;;;;10.20;8.50;;;17.30;99.90;;;;;;5033489;28;20435;-77
2021/09/13 08:07:38;;;;;;;7.57;6.40;;;17.40;99.90;;;;;;5016197;28;20657;-77
2021/09/13 08:10:10;;;;;;;13.23;5.83;;;17.40;99.90;;;;;;5033969;28;20458;-77
2021/09/13 08:12:39;;;;;;;8.05;5.40;;;17.50;99.90;;;;;;5033921;28;20444;-77
2021/09/13 08:15:09;;;;;;;10.27;6.30;;;17.60;99.90;;;;;;5020068;28;20215;-76
2021/09/13 08:17:37;;;;;;;9.13;5.67;;;17.60;99.90;;;;;;5020067;28;20554;-77
2021/09/13 08:20:07;;;;;;;8.23;5.90;;;17.60;99.90;;;;;;5020327;28;20506;-77
2021/09/13 08:22:36;;;;;;;7.10;5.83;;;17.70;99.90;;;;;;5038185;28;20920;-77
2021/09/13 08:25:06;;;;;;;10.70;4.43;;;17.70;99.90;;;;;;5019838;28;20549;-77
2021/09/13 08:27:57;;;;;;;6.43;4.60;;;17.70;99.90;;;;;;5038466;28;20437;-77
2021/09/13 08:30:26;;;;;;;9.80;3.97;;;17.80;99.90;;;;;;5019735;28;20446;-76
2021/09/13 08:32:54;;;;;;;5.97;4.10;;;17.80;99.90;;;;;;5019752;28;20588;-77
2021/09/13 08:35:22;;;;;;;7.37;3.43;;;17.80;99.90;;;;;;5037492;28;20451;-77
2021/09/13 08:37:51;;;;;;;5.77;3.30;;;17.80;99.90;;;;;;5019804;28;20485;-77
2021/09/13 08:40:19;;;;;;;5.90;3.40;;;17.90;99.90;;;;;;5018930;28;20997;-77
2021/09/13 08:42:49;;;;;;;8.87;3.40;;;17.90;99.90;;;;;;5037320;28;20184;-77
2021/09/13 08:45:24;;;;;;;5.68;3.20;;;18.00;99.90;;;;;;5019197;28;20535;-77
2021/09/13 08:48:04;;;;;;;6.37;4.03;;;18.00;99.90;;;;;;5019620;28;20279;-76
2021/09/13 08:50:39;;;;;;;6.17;2.87;;;18.10;99.90;;;;;;5019067;28;20417;-78
2021/09/13 08:53:10;;;;;;;3.70;2.50;;;18.20;99.90;;;;;;5018922;28;20473;-77
2021/09/13 08:55:38;;;;;;;5.57;2.87;;;18.20;99.90;;;;;;5019584;28;20532;-76
2021/09/13 08:58:08;;;;;;;3.80;2.43;;;18.20;99.90;;;;;;5019779;28;20496;-77
2021/09/13 09:00:42;;;;;;;4.20;2.73;;;18.30;99.90;;;;;;5018813;28;20881;-77
2021/09/13 09:03:11;;;;;;;4.70;3.10;;;18.30;99.90;;;;;;5036899;28;20434;-78
2021/09/13 09:05:40;;;;;;;3.30;2.87;;;18.30;99.90;;;;;;5018538;28;21019;-77
2021/09/13 09:08:10;;;;;;;6.60;2.70;;;18.30;99.90;;;;;;5018679;28;20501;-77
2021/09/13 09:10:38;;;;;;;6.10;2.60;;;18.40;99.90;;;;;;5018583;28;20452;-78
2021/09/13 09:13:11;;;;;;;4.53;2.50;;;18.40;99.90;;;;;;5018450;28;20528;-77
2021/09/13 09:15:56;;;;;;;6.93;2.60;;;18.50;99.90;;;;;;5036049;28;20235;-78
2021/09/13 09:18:36;;;;;;;6.47;2.40;;;18.50;99.90;;;;;;5018399;28;20493;-78
2021/09/13 09:21:04;;;;;;;4.70;2.30;;;18.60;99.90;;;;;;5017165;28;20536;-77
2021/09/13 09:23:34;;;;;;;5.93;2.80;;;18.70;99.90;;;;;;5017822;28;20442;-77
2021/09/13 09:26:12;;;;;;;5.20;2.70;;;18.80;99.90;;;;;;5018170;28;20454;-77
2021/09/13 09:28:40;;;;;;;4.20;2.83;;;18.80;99.90;;;;;;5018259;28;20928;-77
2021/09/13 09:31:09;;;;;;;7.57;2.40;;;18.80;99.90;;;;;;5018120;28;20542;-77
2021/09/13 09:33:38;;;;;;;4.00;3.30;;;18.80;99.90;;;;;;5019162;28;20450;-77
2021/09/13 09:36:12;;;;;;;3.20;2.10;;;18.80;99.90;;;;;;5035628;28;20453;-78
2021/09/13 09:38:43;;;;;;;4.93;2.17;;;18.80;99.90;;;;;;5018240;28;20488;-77
2021/09/13 09:41:12;;;;;;;3.47;2.33;;;18.80;99.90;;;;;;5017952;28;20502;-77
2021/09/13 09:44:05;;;;;;;4.03;2.40;;;18.80;99.90;;;;;;5035542;28;20977;-77
2021/09/13 09:46:38;;;;;;;4.45;2.10;;;18.80;99.90;;;;;;5003936;28;20499;-77
2021/09/13 09:49:08;;;;;;;2.67;1.80;;;18.80;99.90;;;;;;5017980;28;20185;-78
2021/09/13 09:51:38;;;;;;;4.90;2.43;;;18.90;99.90;;;;;;5017772;28;20975;-78
2021/09/13 09:54:11;;;;;;;4.35;2.40;;;18.90;99.90;;;;;;5016819;28;20437;-77
2021/09/13 09:56:40;;;;;;;5.13;2.50;;;19.00;99.90;;;;;;5035976;28;20234;-77
2021/09/13 09:59:10;;;;;;;3.57;2.07;;;19.00;99.90;;;;;;5017860;28;20455;-78
2021/09/13 10:01:42;;;;;;;2.70;2.00;;;19.00;99.90;;;;;;5017675;28;21016;-77
2021/09/13 10:04:20;;;;;;;4.77;2.00;;;19.10;99.90;;;;;;5035336;28;20469;-78
2021/09/13 10:06:50;;;;;;;2.20;1.90;;;19.10;99.90;;;;;;5035553;28;20496;-77
2021/09/13 10:09:19;;;;;;;5.17;2.40;;;19.20;99.90;;;;;;5035562;28;20530;-78
2021/09/13 10:11:49;;;;;;;5.40;2.57;;;19.20;99.90;;;;;;5035207;28;20432;-78
2021/09/13 10:14:20;;;;;;;5.27;2.47;;;19.30;99.90;;;;;;5017192;28;20478;-77
2021/09/13 10:16:51;;;;;;;2.93;2.13;;;19.30;99.90;;;;;;5017176;28;20447;-77
2021/09/13 10:19:22;;;;;;;4.90;3.20;;;19.40;99.90;;;;;;5017280;28;20758;-78
2021/09/13 10:21:52;;;;;;;4.47;2.10;;;19.50;99.90;;;;;;5017110;28;20463;-77
2021/09/13 10:24:23;;;;;;;4.10;2.20;;;19.50;99.90;;;;;;5035206;28;20558;-77
2021/09/13 10:26:55;;;;;;;3.85;2.40;;;19.50;99.90;;;;;;5016795;28;20547;-77
2021/09/13 10:29:25;;;;;;;5.60;2.50;;;19.60;99.90;;;;;;5017290;28;20188;-77
2021/09/13 10:31:57;;;;;;;4.17;2.13;;;19.60;99.90;;;;;;5017052;28;20482;-77
2021/09/13 10:34:30;;;;;;;3.90;2.70;;;19.70;99.90;;;;;;5016985;28;20839;-77
2021/09/13 10:37:17;;;;;;;4.70;2.00;;;19.70;99.90;;;;;;5033990;28;20458;-77
2021/09/13 10:39:58;;;;;;;6.63;2.50;;;19.80;99.90;;;;;;5017233;28;20435;-77
2021/09/13 10:42:38;;;;;;;6.07;2.10;;;19.80;99.90;;;;;;5016967;28;20450;-78
2021/09/13 10:45:09;;;;;;;4.97;2.10;;;19.90;99.90;;;;;;5034525;28;20867;-77
2021/09/13 10:47:40;;;;;;;3.50;2.37;;;19.90;99.90;;;;;;5034627;28;20423;-77
2021/09/13 10:50:17;;;;;;;6.83;2.50;;;19.90;99.90;;;;;;5034764;28;20508;-78
2021/09/13 10:52:46;;;;;;;2.90;2.30;;;19.90;99.90;;;;;;5016507;28;20909;-77
2021/09/13 10:55:25;;;;;;;2.23;1.90;;;19.90;99.90;;;;;;5034259;28;20240;-78
2021/09/13 10:57:58;;;;;;;3.60;1.80;;;19.90;99.90;;;;;;5016733;28;20508;-78
2021/09/13 11:01:03;;;;;;;4.80;2.40;;;19.80;99.90;;;;;;5033629;28;20461;-78
2021/09/13 11:03:44;;;;;;;2.73;1.70;;;20.00;99.90;;;;;;5016428;28;20187;-77
2021/09/13 11:06:51;;;;;;;2.60;1.90;;;19.90;99.90;;;;;;5016334;28;20952;-77
2021/09/13 11:09:23;;;;;;;2.50;2.00;;;19.90;99.90;;;;;;5034439;28;20442;-78
2021/09/13 11:11:55;;;;;;;3.50;1.60;;;19.90;99.90;;;;;;5016440;28;20510;-78
2021/09/13 11:14:24;;;;;;;2.40;1.57;;;19.90;99.90;;;;;;5016269;28;20478;-78
2021/09/13 11:16:55;;;;;;;2.93;2.10;;;19.90;99.90;;;;;;5033981;28;20497;-78
2021/09/13 11:19:26;;;;;;;2.57;1.47;;;19.90;99.90;;;;;;5034328;28;20424;-77
2021/09/13 11:21:56;;;;;;;4.40;1.77;;;19.90;99.90;;;;;;5016080;28;20467;-77
2021/09/13 11:24:31;;;;;;;2.23;1.63;;;19.90;99.90;;;;;;5033772;28;20467;-78
2021/09/13 11:27:05;;;;;;;3.60;1.90;;;19.90;99.90;;;;;;5034155;28;20445;-77
2021/09/13 11:29:36;;;;;;;6.27;1.40;;;19.90;99.90;;;;;;5016066;28;20450;-79
2021/09/13 11:32:07;;;;;;;3.22;1.50;;;20.10;99.90;;;;;;5015247;28;20473;-77
2021/09/13 11:34:42;;;;;;;2.50;1.50;;;20.20;99.90;;;;;;5015781;28;20635;-77
2021/09/13 11:37:19;;;;;;;3.60;1.90;;;20.30;99.90;;;;;;5033650;28;20927;-78
2021/09/13 11:40:09;;;;;;;2.67;1.50;;;20.30;99.90;;;;;;5016005;28;20453;-78
2021/09/13 11:42:38;;;;;;;2.77;1.80;;;20.40;99.90;;;;;;5033510;28;20507;-77
2021/09/13 11:45:11;;;;;;;3.50;1.50;;;20.40;99.90;;;;;;5033341;28;21033;-77
2021/09/13 11:48:04;;;;;;;3.53;1.77;;;20.40;99.90;;;;;;5015912;28;20465;-78
2021/09/13 11:50:36;;;;;;;4.73;1.73;;;20.50;99.90;;;;;;5016035;28;20449;-77
2021/09/13 11:53:14;;;;;;;4.10;1.67;;;20.50;99.90;;;;;;5015748;28;20451;-77
2021/09/13 11:55:42;;;;;;;2.10;1.30;;;20.40;99.90;;;;;;5015670;28;20561;-78
2021/09/13 11:58:13;;;;;;;3.25;1.70;;;20.40;99.90;;;;;;5015823;28;20453;-78
2021/09/13 12:00:42;;;;;;;3.60;1.70;;;20.50;99.90;;;;;;5033197;28;20580;-78
2021/09/13 12:03:11;;;;;;;3.08;1.50;;;20.50;99.90;;;;;;5032952;28;20861;-77
2021/09/13 12:05:43;;;;;;;4.10;2.20;;;20.50;99.90;;;;;;5033069;28;20205;-77
2021/09/13 12:08:17;;;;;;;3.97;1.50;;;20.50;99.90;;;;;;5033085;28;20434;-77
2021/09/13 12:10:46;;;;;;;2.60;1.60;;;20.50;99.90;;;;;;5015559;28;20443;-78
2021/09/13 12:13:16;;;;;;;5.20;1.63;;;20.50;99.90;;;;;;5015104;28;20457;-77
2021/09/13 12:15:51;;;;;;;4.03;1.60;;;20.50;99.90;;;;;;5015474;28;20528;-78
2021/09/13 12:18:20;;;;;;;3.50;2.07;;;20.60;99.90;;;;;;5015351;28;20851;-78
2021/09/13 12:20:52;;;;;;;2.47;1.40;;;20.60;99.90;;;;;;5015277;28;20446;-77
2021/09/13 12:23:24;;;;;;;3.27;1.73;;;20.70;99.90;;;;;;5015581;28;20451;-74
2021/09/13 12:25:54;;;;;;;3.30;1.70;;;20.60;99.90;;;;;;5015991;28;20991;-78
2021/09/13 12:28:25;;;;;;;4.43;2.00;;;20.70;99.90;;;;;;5033266;28;20528;-78
2021/09/13 12:30:54;;;;;;;4.00;1.70;;;20.60;99.90;;;;;;5015996;28;20206;-78
2021/09/13 12:33:41;;;;;;;4.03;1.60;;;20.60;99.90;;;;;;5016088;28;20516;-78
2021/09/13 12:36:15;;;;;;;6.10;2.35;;;20.60;99.90;;;;;;5015350;28;21042;-79
2021/09/13 12:38:45;;;;;;;6.10;1.90;;;20.60;99.90;;;;;;5016412;28;20283;-79
2021/09/13 12:41:14;;;;;;;3.63;1.90;;;20.70;99.90;;;;;;5034172;28;20988;-79
2021/09/13 12:43:44;;;;;;;3.77;1.47;;;20.70;99.90;;;;;;5015627;28;20453;-77
2021/09/13 12:46:14;;;;;;;6.30;1.97;;;20.80;99.90;;;;;;5032962;28;20486;-78
2021/09/13 12:48:47;;;;;;;3.37;1.90;;;20.80;99.90;;;;;;5015505;28;20812;-78
2021/09/13 12:51:18;;;;;;;4.60;2.00;;;20.70;99.90;;;;;;5015776;28;20459;-78
2021/09/13 12:53:54;;;;;;;4.20;1.93;;;20.80;99.90;;;;;;5033233;28;20454;-78
2021/09/13 12:56:22;;;;;;;5.33;1.73;;;20.80;99.90;;;;;;5015394;28;20519;-78
2021/09/13 12:58:54;;;;;;;4.00;2.43;;;20.90;99.90;;;;;;5017610;28;20450;-78
2021/09/13 13:01:34;;;;;;;3.80;1.70;;;20.90;99.90;;;;;;5036410;28;20913;-78
2021/09/13 13:04:05;;;;;;;4.63;2.43;;;21.00;99.90;;;;;;5018992;28;20466;-77
2021/09/13 13:06:36;;;;;;;2.60;1.50;;;21.00;99.90;;;;;;5036874;28;20903;-77
2021/09/13 13:09:08;;;;;;;3.30;1.83;;;21.00;99.90;;;;;;5020726;28;20242;-77
2021/09/13 13:11:38;;;;;;;8.33;2.57;;;21.10;99.90;;;;;;5018688;28;20443;-77